sensor_id;sensor_type;location;lat;lon;timestamp;temperature;humidity
44229;DHT22;29904;51.058;5.378;2023-12-20T00:01:45;6.70;99.90
44229;DHT22;29904;51.058;5.378;2023-12-20T00:04:11;6.60;99.90
44229;DHT22;29904;51.058;5.378;2023-12-20T00:06:36;6.60;99.90
44229;DHT22;29904;51.058;5.378;2023-12-20T00:09:02;6.50;99.90
44229;DHT22;29904;51.058;5.378;2023-12-20T00:11:28;6.50;99.90
44229;DHT22;29904;51.058;5.378;2023-12-20T00:13:54;6.60;99.90
44229;DHT22;29904;51.058;5.378;2023-12-20T00:16:21;6.60;99.90
44229;DHT22;29904;51.058;5.378;2023-12-20T00:18:47;6.60;99.90
44229;DHT22;29904;51.058;5.378;2023-12-20T00:21:12;6.60;99.90
44229;DHT22;29904;51.058;5.378;2023-12-20T00:23:40;6.60;99.90
44229;DHT22;29904;51.058;5.378;2023-12-20T00:26:06;6.70;99.90
44229;DHT22;29904;51.058;5.378;2023-12-20T00:28:31;6.70;99.90
44229;DHT22;29904;51.058;5.378;2023-12-20T00:30:58;6.70;99.90
44229;DHT22;29904;51.058;5.378;2023-12-20T00:33:23;6.70;99.90
44229;DHT22;29904;51.058;5.378;2023-12-20T00:35:49;6.80;99.90
44229;DHT22;29904;51.058;5.378;2023-12-20T00:38:17;6.80;99.90
44229;DHT22;29904;51.058;5.378;2023-12-20T00:40:42;6.70;99.90
44229;DHT22;29904;51.058;5.378;2023-12-20T00:43:08;6.70;99.90
44229;DHT22;29904;51.058;5.378;2023-12-20T00:45:34;6.80;99.90
44229;DHT22;29904;51.058;5.378;2023-12-20T00:48:00;6.70;99.90
44229;DHT22;29904;51.058;5.378;2023-12-20T00:50:25;6.70;99.90
44229;DHT22;29904;51.058;5.378;2023-12-20T00:52:51;6.70;99.90
44229;DHT22;29904;51.058;5.378;2023-12-20T00:55:17;6.70;99.90
44229;DHT22;29904;51.058;5.378;2023-12-20T00:57:42;6.60;99.90
44229;DHT22;29904;51.058;5.378;2023-12-20T01:00:10;6.60;99.90
44229;DHT22;29904;51.058;5.378;2023-12-20T01:02:36;6.60;99.90
44229;DHT22;29904;51.058;5.378;2023-12-20T01:05:01;6.50;99.90
44229;DHT22;29904;51.058;5.378;2023-12-20T01:07:28;6.50;99.90
44229;DHT22;29904;51.058;5.378;2023-12-20T01:09:56;6.50;99.90
44229;DHT22;29904;51.058;5.378;2023-12-20T01:12:21;6.40;99.90
44229;DHT22;29904;51.058;5.378;2023-12-20T01:14:47;6.30;99.90
44229;DHT22;29904;51.058;5.378;2023-12-20T01:17:14;6.30;99.90
44229;DHT22;29904;51.058;5.378;2023-12-20T01:19:40;6.30;99.90
44229;DHT22;29904;51.058;5.378;2023-12-20T01:22:06;6.20;99.90
44229;DHT22;29904;51.058;5.378;2023-12-20T01:24:32;6.20;99.90
44229;DHT22;29904;51.058;5.378;2023-12-20T01:26:57;6.20;99.90
44229;DHT22;29904;51.058;5.378;2023-12-20T01:29:23;6.10;99.90
44229;DHT22;29904;51.058;5.378;2023-12-20T01:31:50;6.10;99.90
44229;DHT22;29904;51.058;5.378;2023-12-20T01:34:18;6.00;99.90
44229;DHT22;29904;51.058;5.378;2023-12-20T01:36:44;6.00;99.90
44229;DHT22;29904;51.058;5.378;2023-12-20T01:39:10;5.90;99.90
44229;DHT22;29904;51.058;5.378;2023-12-20T01:41:35;6.00;99.90
44229;DHT22;29904;51.058;5.378;2023-12-20T01:44:01;6.00;99.90
44229;DHT22;29904;51.058;5.378;2023-12-20T01:46:28;5.90;99.90
44229;DHT22;29904;51.058;5.378;2023-12-20T01:48:54;5.90;99.90
44229;DHT22;29904;51.058;5.378;2023-12-20T01:51:21;5.80;99.90
44229;DHT22;29904;51.058;5.378;2023-12-20T01:53:47;5.80;99.90
44229;DHT22;29904;51.058;5.378;2023-12-20T01:56:13;5.80;99.90
44229;DHT22;29904;51.058;5.378;2023-12-20T01:58:46;5.70;99.90
44229;DHT22;29904;51.058;5.378;2023-12-20T02:01:13;5.80;99.90
44229;DHT22;29904;51.058;5.378;2023-12-20T02:03:41;5.80;99.90
44229;DHT22;29904;51.058;5.378;2023-12-20T02:06:07;5.80;99.90
44229;DHT22;29904;51.058;5.378;2023-12-20T02:08:33;5.70;99.90
44229;DHT22;29904;51.058;5.378;2023-12-20T02:11:00;5.60;99.90
44229;DHT22;29904;51.058;5.378;2023-12-20T02:13:25;5.50;99.90
44229;DHT22;29904;51.058;5.378;2023-12-20T02:15:52;5.50;99.90
44229;DHT22;29904;51.058;5.378;2023-12-20T02:18:18;5.50;99.90
44229;DHT22;29904;51.058;5.378;2023-12-20T02:20:44;5.40;99.90
44229;DHT22;29904;51.058;5.378;2023-12-20T02:23:10;5.40;99.90
44229;DHT22;29904;51.058;5.378;2023-12-20T02:25:36;5.30;99.90
44229;DHT22;29904;51.058;5.378;2023-12-20T02:28:03;5.30;99.90
44229;DHT22;29904;51.058;5.378;2023-12-20T02:30:29;5.30;99.90
44229;DHT22;29904;51.058;5.378;2023-12-20T02:32:55;5.30;99.90
44229;DHT22;29904;51.058;5.378;2023-12-20T02:35:21;5.30;99.90
44229;DHT22;29904;51.058;5.378;2023-12-20T02:37:46;5.20;99.90
44229;DHT22;29904;51.058;5.378;2023-12-20T02:40:14;5.20;99.90
44229;DHT22;29904;51.058;5.378;2023-12-20T02:42:40;5.20;99.90
44229;DHT22;29904;51.058;5.378;2023-12-20T02:45:06;5.20;99.90
44229;DHT22;29904;51.058;5.378;2023-12-20T02:47:32;5.20;99.90
44229;DHT22;29904;51.058;5.378;2023-12-20T02:49:57;5.10;99.90
44229;DHT22;29904;51.058;5.378;2023-12-20T02:52:24;5.10;99.90
44229;DHT22;29904;51.058;5.378;2023-12-20T02:54:51;5.10;99.90
44229;DHT22;29904;51.058;5.378;2023-12-20T02:57:19;5.10;99.90
44229;DHT22;29904;51.058;5.378;2023-12-20T02:59:45;5.10;99.90
44229;DHT22;29904;51.058;5.378;2023-12-20T03:02:10;5.20;99.90
44229;DHT22;29904;51.058;5.378;2023-12-20T03:04:36;5.20;99.90
44229;DHT22;29904;51.058;5.378;2023-12-20T03:07:02;5.30;99.90
44229;DHT22;29904;51.058;5.378;2023-12-20T03:09:28;5.40;99.90
44229;DHT22;29904;51.058;5.378;2023-12-20T03:11:53;5.40;99.90
44229;DHT22;29904;51.058;5.378;2023-12-20T03:14:19;5.40;99.90
44229;DHT22;29904;51.058;5.378;2023-12-20T03:16:50;5.50;99.90
44229;DHT22;29904;51.058;5.378;2023-12-20T03:19:17;5.50;99.90
44229;DHT22;29904;51.058;5.378;2023-12-20T03:21:43;5.60;99.90
44229;DHT22;29904;51.058;5.378;2023-12-20T03:24:10;5.70;99.90
44229;DHT22;29904;51.058;5.378;2023-12-20T03:26:38;5.70;99.90
44229;DHT22;29904;51.058;5.378;2023-12-20T03:29:04;5.80;99.90
44229;DHT22;29904;51.058;5.378;2023-12-20T03:31:29;5.80;99.90
44229;DHT22;29904;51.058;5.378;2023-12-20T03:33:55;5.80;99.90
44229;DHT22;29904;51.058;5.378;2023-12-20T03:36:23;5.80;99.90
44229;DHT22;29904;51.058;5.378;2023-12-20T03:38:49;5.80;99.90
44229;DHT22;29904;51.058;5.378;2023-12-20T03:41:14;5.80;99.90
44229;DHT22;29904;51.058;5.378;2023-12-20T03:43:42;5.80;99.90
44229;DHT22;29904;51.058;5.378;2023-12-20T03:46:10;5.90;99.90
44229;DHT22;29904;51.058;5.378;2023-12-20T03:48:35;5.90;99.90
44229;DHT22;29904;51.058;5.378;2023-12-20T03:51:03;6.00;99.90
44229;DHT22;29904;51.058;5.378;2023-12-20T03:53:29;6.00;99.90
44229;DHT22;29904;51.058;5.378;2023-12-20T03:55:55;6.00;99.90
44229;DHT22;29904;51.058;5.378;2023-12-20T03:58:21;6.00;99.90
44229;DHT22;29904;51.058;5.378;2023-12-20T04:00:46;6.00;99.90
44229;DHT22;29904;51.058;5.378;2023-12-20T04:03:12;6.00;99.90
44229;DHT22;29904;51.058;5.378;2023-12-20T04:05:40;6.00;99.90
44229;DHT22;29904;51.058;5.378;2023-12-20T04:08:07;6.00;99.90
44229;DHT22;29904;51.058;5.378;2023-12-20T04:10:33;6.00;99.90
44229;DHT22;29904;51.058;5.378;2023-12-20T04:13:01;6.00;99.90
44229;DHT22;29904;51.058;5.378;2023-12-20T04:15:26;6.10;99.90
44229;DHT22;29904;51.058;5.378;2023-12-20T04:17:52;6.10;99.90
44229;DHT22;29904;51.058;5.378;2023-12-20T04:20:18;6.10;99.90
44229;DHT22;29904;51.058;5.378;2023-12-20T04:22:43;6.20;99.90
44229;DHT22;29904;51.058;5.378;2023-12-20T04:25:09;6.20;99.90
44229;DHT22;29904;51.058;5.378;2023-12-20T04:27:37;6.20;99.90
44229;DHT22;29904;51.058;5.378;2023-12-20T04:30:03;6.30;99.90
44229;DHT22;29904;51.058;5.378;2023-12-20T04:32:29;6.30;99.90
44229;DHT22;29904;51.058;5.378;2023-12-20T04:34:54;6.30;99.90
44229;DHT22;29904;51.058;5.378;2023-12-20T04:37:20;6.30;99.90
44229;DHT22;29904;51.058;5.378;2023-12-20T04:39:46;6.30;99.90
44229;DHT22;29904;51.058;5.378;2023-12-20T04:42:12;6.30;99.90
44229;DHT22;29904;51.058;5.378;2023-12-20T04:44:37;6.40;99.90
44229;DHT22;29904;51.058;5.378;2023-12-20T04:47:03;6.40;99.90
44229;DHT22;29904;51.058;5.378;2023-12-20T04:49:29;6.30;99.90
44229;DHT22;29904;51.058;5.378;2023-12-20T04:51:54;6.30;99.90
44229;DHT22;29904;51.058;5.378;2023-12-20T04:54:21;6.20;99.90
44229;DHT22;29904;51.058;5.378;2023-12-20T04:56:49;6.10;99.90
44229;DHT22;29904;51.058;5.378;2023-12-20T04:59:15;6.20;99.90
44229;DHT22;29904;51.058;5.378;2023-12-20T05:01:40;6.20;99.90
44229;DHT22;29904;51.058;5.378;2023-12-20T05:04:08;6.20;99.90
44229;DHT22;29904;51.058;5.378;2023-12-20T05:06:36;6.20;99.90
44229;DHT22;29904;51.058;5.378;2023-12-20T05:09:01;6.20;99.90
44229;DHT22;29904;51.058;5.378;2023-12-20T05:11:27;6.20;99.90
44229;DHT22;29904;51.058;5.378;2023-12-20T05:13:53;6.20;99.90
44229;DHT22;29904;51.058;5.378;2023-12-20T05:16:18;6.20;99.90
44229;DHT22;29904;51.058;5.378;2023-12-20T05:18:47;6.20;99.90
44229;DHT22;29904;51.058;5.378;2023-12-20T05:21:13;6.30;99.90
44229;DHT22;29904;51.058;5.378;2023-12-20T05:23:39;6.20;99.90
44229;DHT22;29904;51.058;5.378;2023-12-20T05:26:05;6.10;99.90
44229;DHT22;29904;51.058;5.378;2023-12-20T05:28:30;6.10;99.90
44229;DHT22;29904;51.058;5.378;2023-12-20T05:30:56;6.00;99.90
44229;DHT22;29904;51.058;5.378;2023-12-20T05:33:23;6.00;99.90
44229;DHT22;29904;51.058;5.378;2023-12-20T05:35:50;6.20;99.90
44229;DHT22;29904;51.058;5.378;2023-12-20T05:38:15;6.10;99.90
44229;DHT22;29904;51.058;5.378;2023-12-20T05:40:44;6.10;99.90
44229;DHT22;29904;51.058;5.378;2023-12-20T05:43:11;6.10;99.90
44229;DHT22;29904;51.058;5.378;2023-12-20T05:45:37;6.10;99.90
44229;DHT22;29904;51.058;5.378;2023-12-20T05:48:03;6.00;99.90
44229;DHT22;29904;51.058;5.378;2023-12-20T05:50:28;6.10;99.90
44229;DHT22;29904;51.058;5.378;2023-12-20T05:52:54;6.00;99.90
44229;DHT22;29904;51.058;5.378;2023-12-20T05:55:22;6.00;99.90
44229;DHT22;29904;51.058;5.378;2023-12-20T05:57:48;5.90;99.90
44229;DHT22;29904;51.058;5.378;2023-12-20T06:00:14;5.80;99.90
44229;DHT22;29904;51.058;5.378;2023-12-20T06:02:41;5.80;99.90
44229;DHT22;29904;51.058;5.378;2023-12-20T06:05:07;5.70;99.90
44229;DHT22;29904;51.058;5.378;2023-12-20T06:07:33;5.70;99.90
44229;DHT22;29904;51.058;5.378;2023-12-20T06:09:58;5.60;99.90
44229;DHT22;29904;51.058;5.378;2023-12-20T06:12:24;5.60;99.90
44229;DHT22;29904;51.058;5.378;2023-12-20T06:14:52;5.50;99.90
44229;DHT22;29904;51.058;5.378;2023-12-20T06:17:19;5.50;99.90
44229;DHT22;29904;51.058;5.378;2023-12-20T06:19:45;5.50;99.90
44229;DHT22;29904;51.058;5.378;2023-12-20T06:22:14;5.50;99.90
44229;DHT22;29904;51.058;5.378;2023-12-20T06:24:39;5.50;99.90
44229;DHT22;29904;51.058;5.378;2023-12-20T06:27:05;5.50;99.90
44229;DHT22;29904;51.058;5.378;2023-12-20T06:29:31;5.60;99.90
44229;DHT22;29904;51.058;5.378;2023-12-20T06:31:56;5.60;99.90
44229;DHT22;29904;51.058;5.378;2023-12-20T06:34:22;5.70;99.90
44229;DHT22;29904;51.058;5.378;2023-12-20T06:36:48;5.80;99.90
44229;DHT22;29904;51.058;5.378;2023-12-20T06:39:14;5.80;99.90
44229;DHT22;29904;51.058;5.378;2023-12-20T06:41:40;5.90;99.90
44229;DHT22;29904;51.058;5.378;2023-12-20T06:44:05;5.90;99.90
44229;DHT22;29904;51.058;5.378;2023-12-20T06:46:31;5.90;99.90
44229;DHT22;29904;51.058;5.378;2023-12-20T06:48:57;5.80;99.90
44229;DHT22;29904;51.058;5.378;2023-12-20T06:51:23;5.80;99.90
44229;DHT22;29904;51.058;5.378;2023-12-20T06:53:53;5.70;99.90
44229;DHT22;29904;51.058;5.378;2023-12-20T06:56:19;5.70;99.90
44229;DHT22;29904;51.058;5.378;2023-12-20T06:58:45;5.70;99.90
44229;DHT22;29904;51.058;5.378;2023-12-20T07:01:15;5.70;99.90
44229;DHT22;29904;51.058;5.378;2023-12-20T07:03:41;5.60;99.90
44229;DHT22;29904;51.058;5.378;2023-12-20T07:06:07;5.60;99.90
44229;DHT22;29904;51.058;5.378;2023-12-20T07:08:33;5.50;99.90
44229;DHT22;29904;51.058;5.378;2023-12-20T07:10:59;5.50;99.90
44229;DHT22;29904;51.058;5.378;2023-12-20T07:13:25;5.40;99.90
44229;DHT22;29904;51.058;5.378;2023-12-20T07:15:50;5.40;99.90
44229;DHT22;29904;51.058;5.378;2023-12-20T07:18:16;5.40;99.90
44229;DHT22;29904;51.058;5.378;2023-12-20T07:20:42;5.40;99.90
44229;DHT22;29904;51.058;5.378;2023-12-20T07:23:08;5.40;99.90
44229;DHT22;29904;51.058;5.378;2023-12-20T07:25:34;5.30;99.90
44229;DHT22;29904;51.058;5.378;2023-12-20T07:28:00;5.30;99.90
44229;DHT22;29904;51.058;5.378;2023-12-20T07:30:28;5.30;99.90
44229;DHT22;29904;51.058;5.378;2023-12-20T07:32:53;5.30;99.90
44229;DHT22;29904;51.058;5.378;2023-12-20T07:35:19;5.30;99.90
44229;DHT22;29904;51.058;5.378;2023-12-20T07:37:47;5.40;99.90
44229;DHT22;29904;51.058;5.378;2023-12-20T07:40:13;5.30;99.90
44229;DHT22;29904;51.058;5.378;2023-12-20T07:42:38;5.30;99.90
44229;DHT22;29904;51.058;5.378;2023-12-20T07:45:06;5.30;99.90
44229;DHT22;29904;51.058;5.378;2023-12-20T07:47:32;5.30;99.90
44229;DHT22;29904;51.058;5.378;2023-12-20T07:49:58;5.30;99.90
44229;DHT22;29904;51.058;5.378;2023-12-20T07:52:24;5.40;99.90
44229;DHT22;29904;51.058;5.378;2023-12-20T07:54:50;5.40;99.90
44229;DHT22;29904;51.058;5.378;2023-12-20T07:57:15;5.40;99.90
44229;DHT22;29904;51.058;5.378;2023-12-20T07:59:41;5.40;99.90
44229;DHT22;29904;51.058;5.378;2023-12-20T08:02:07;5.30;99.90
44229;DHT22;29904;51.058;5.378;2023-12-20T08:04:35;5.40;99.90
44229;DHT22;29904;51.058;5.378;2023-12-20T08:07:03;5.40;99.90
44229;DHT22;29904;51.058;5.378;2023-12-20T08:09:29;5.40;99.90
44229;DHT22;29904;51.058;5.378;2023-12-20T08:11:55;5.40;99.90
44229;DHT22;29904;51.058;5.378;2023-12-20T08:14:21;5.50;99.90
44229;DHT22;29904;51.058;5.378;2023-12-20T08:16:46;5.60;99.90
44229;DHT22;29904;51.058;5.378;2023-12-20T08:19:13;5.70;99.90
44229;DHT22;29904;51.058;5.378;2023-12-20T08:21:39;5.80;99.90
44229;DHT22;29904;51.058;5.378;2023-12-20T08:24:07;5.90;99.90
44229;DHT22;29904;51.058;5.378;2023-12-20T08:26:33;6.00;99.90
44229;DHT22;29904;51.058;5.378;2023-12-20T08:28:58;6.00;99.90
44229;DHT22;29904;51.058;5.378;2023-12-20T08:31:27;6.10;99.90
44229;DHT22;29904;51.058;5.378;2023-12-20T08:33:52;6.20;99.90
44229;DHT22;29904;51.058;5.378;2023-12-20T08:36:19;6.20;99.90
44229;DHT22;29904;51.058;5.378;2023-12-20T08:38:47;6.30;99.90
44229;DHT22;29904;51.058;5.378;2023-12-20T08:41:12;6.30;99.90
44229;DHT22;29904;51.058;5.378;2023-12-20T08:43:38;6.40;99.90
44229;DHT22;29904;51.058;5.378;2023-12-20T08:46:07;6.40;99.90
44229;DHT22;29904;51.058;5.378;2023-12-20T08:48:35;6.40;99.90
44229;DHT22;29904;51.058;5.378;2023-12-20T08:51:00;6.40;99.90
44229;DHT22;29904;51.058;5.378;2023-12-20T08:53:26;6.50;99.90
44229;DHT22;29904;51.058;5.378;2023-12-20T08:55:54;6.50;99.90
44229;DHT22;29904;51.058;5.378;2023-12-20T08:58:19;6.50;99.90
44229;DHT22;29904;51.058;5.378;2023-12-20T09:00:45;6.50;99.90
44229;DHT22;29904;51.058;5.378;2023-12-20T09:03:11;6.60;99.90
44229;DHT22;29904;51.058;5.378;2023-12-20T09:05:37;6.60;99.90
44229;DHT22;29904;51.058;5.378;2023-12-20T09:08:02;6.60;99.90
44229;DHT22;29904;51.058;5.378;2023-12-20T09:10:30;6.60;99.90
44229;DHT22;29904;51.058;5.378;2023-12-20T09:12:56;6.60;99.90
44229;DHT22;29904;51.058;5.378;2023-12-20T09:15:26;6.60;99.90
44229;DHT22;29904;51.058;5.378;2023-12-20T09:17:54;6.60;99.90
44229;DHT22;29904;51.058;5.378;2023-12-20T09:20:20;6.60;99.90
44229;DHT22;29904;51.058;5.378;2023-12-20T09:22:45;6.70;99.90
44229;DHT22;29904;51.058;5.378;2023-12-20T09:25:13;6.70;99.90
44229;DHT22;29904;51.058;5.378;2023-12-20T09:27:41;6.80;99.90
44229;DHT22;29904;51.058;5.378;2023-12-20T09:30:07;6.80;99.90
44229;DHT22;29904;51.058;5.378;2023-12-20T09:32:33;6.90;99.90
44229;DHT22;29904;51.058;5.378;2023-12-20T09:34:58;7.30;99.90
44229;DHT22;29904;51.058;5.378;2023-12-20T09:37:27;7.00;99.90
44229;DHT22;29904;51.058;5.378;2023-12-20T09:39:53;7.00;99.90
44229;DHT22;29904;51.058;5.378;2023-12-20T09:42:27;7.10;99.90
44229;DHT22;29904;51.058;5.378;2023-12-20T09:44:55;7.10;99.90
44229;DHT22;29904;51.058;5.378;2023-12-20T09:47:23;7.10;99.90
44229;DHT22;29904;51.058;5.378;2023-12-20T09:49:50;7.10;99.90
44229;DHT22;29904;51.058;5.378;2023-12-20T09:52:18;7.10;99.90
44229;DHT22;29904;51.058;5.378;2023-12-20T09:54:46;7.20;99.90
44229;DHT22;29904;51.058;5.378;2023-12-20T09:57:15;7.20;99.90
44229;DHT22;29904;51.058;5.378;2023-12-20T09:59:40;7.20;99.90
44229;DHT22;29904;51.058;5.378;2023-12-20T10:02:10;7.30;99.90
44229;DHT22;29904;51.058;5.378;2023-12-20T10:04:38;7.30;99.90
44229;DHT22;29904;51.058;5.378;2023-12-20T10:07:06;7.30;99.90
44229;DHT22;29904;51.058;5.378;2023-12-20T10:09:32;7.30;99.90
44229;DHT22;29904;51.058;5.378;2023-12-20T10:11:58;7.40;99.90
44229;DHT22;29904;51.058;5.378;2023-12-20T10:14:24;7.40;99.90
44229;DHT22;29904;51.058;5.378;2023-12-20T10:16:50;7.50;99.90
44229;DHT22;29904;51.058;5.378;2023-12-20T10:19:19;7.50;99.90
44229;DHT22;29904;51.058;5.378;2023-12-20T10:21:45;7.50;99.90
44229;DHT22;29904;51.058;5.378;2023-12-20T10:24:17;7.50;99.90
44229;DHT22;29904;51.058;5.378;2023-12-20T10:26:43;7.50;99.90
44229;DHT22;29904;51.058;5.378;2023-12-20T10:29:10;7.50;99.90
44229;DHT22;29904;51.058;5.378;2023-12-20T10:31:37;7.60;99.90
44229;DHT22;29904;51.058;5.378;2023-12-20T10:34:07;7.70;99.90
44229;DHT22;29904;51.058;5.378;2023-12-20T10:36:33;7.80;99.90
44229;DHT22;29904;51.058;5.378;2023-12-20T10:39:02;7.80;99.90
44229;DHT22;29904;51.058;5.378;2023-12-20T10:41:30;7.80;99.90
44229;DHT22;29904;51.058;5.378;2023-12-20T10:44:00;7.80;99.90
44229;DHT22;29904;51.058;5.378;2023-12-20T10:46:27;7.80;99.90
44229;DHT22;29904;51.058;5.378;2023-12-20T10:48:57;7.80;99.90
44229;DHT22;29904;51.058;5.378;2023-12-20T10:51:24;7.80;99.90
44229;DHT22;29904;51.058;5.378;2023-12-20T10:53:52;7.80;99.90
44229;DHT22;29904;51.058;5.378;2023-12-20T10:56:19;7.80;99.90
44229;DHT22;29904;51.058;5.378;2023-12-20T10:58:46;7.90;99.90
44229;DHT22;29904;51.058;5.378;2023-12-20T11:01:17;7.90;99.90
44229;DHT22;29904;51.058;5.378;2023-12-20T11:03:51;7.90;99.90
44229;DHT22;29904;51.058;5.378;2023-12-20T11:09:14;7.90;99.90
44229;DHT22;29904;51.058;5.378;2023-12-20T11:14:55;7.90;99.90
44229;DHT22;29904;51.058;5.378;2023-12-20T11:17:24;8.00;99.90
44229;DHT22;29904;51.058;5.378;2023-12-20T11:22:30;8.00;99.90
44229;DHT22;29904;51.058;5.378;2023-12-20T11:25:04;8.10;99.90
44229;DHT22;29904;51.058;5.378;2023-12-20T11:27:30;8.10;99.90
44229;DHT22;29904;51.058;5.378;2023-12-20T11:29:58;8.10;99.90
44229;DHT22;29904;51.058;5.378;2023-12-20T11:34:54;8.10;99.90
44229;DHT22;29904;51.058;5.378;2023-12-20T11:37:20;8.10;99.90
44229;DHT22;29904;51.058;5.378;2023-12-20T11:39:55;8.10;99.90
44229;DHT22;29904;51.058;5.378;2023-12-20T11:42:23;8.10;99.90
44229;DHT22;29904;51.058;5.378;2023-12-20T11:44:50;8.10;99.90
44229;DHT22;29904;51.058;5.378;2023-12-20T11:47:16;8.10;99.90
44229;DHT22;29904;51.058;5.378;2023-12-20T11:49:46;8.10;99.90
44229;DHT22;29904;51.058;5.378;2023-12-20T11:52:12;8.00;99.90
44229;DHT22;29904;51.058;5.378;2023-12-20T11:54:40;8.00;99.90
44229;DHT22;29904;51.058;5.378;2023-12-20T11:57:06;8.00;99.90
44229;DHT22;29904;51.058;5.378;2023-12-20T11:59:32;8.00;99.90
44229;DHT22;29904;51.058;5.378;2023-12-20T12:02:00;8.00;99.90
44229;DHT22;29904;51.058;5.378;2023-12-20T12:04:27;8.00;99.90
44229;DHT22;29904;51.058;5.378;2023-12-20T12:06:53;8.00;99.90
44229;DHT22;29904;51.058;5.378;2023-12-20T12:09:21;8.10;99.90
44229;DHT22;29904;51.058;5.378;2023-12-20T12:11:47;8.10;99.90
44229;DHT22;29904;51.058;5.378;2023-12-20T12:14:13;8.10;99.90
44229;DHT22;29904;51.058;5.378;2023-12-20T12:16:41;8.10;99.90
44229;DHT22;29904;51.058;5.378;2023-12-20T12:19:10;8.00;99.90
44229;DHT22;29904;51.058;5.378;2023-12-20T12:21:45;8.00;99.90
44229;DHT22;29904;51.058;5.378;2023-12-20T12:24:11;8.10;99.90
44229;DHT22;29904;51.058;5.378;2023-12-20T12:26:37;8.10;99.90
44229;DHT22;29904;51.058;5.378;2023-12-20T12:29:03;8.10;99.90
44229;DHT22;29904;51.058;5.378;2023-12-20T12:31:30;8.00;99.90
44229;DHT22;29904;51.058;5.378;2023-12-20T12:33:56;8.00;99.90
44229;DHT22;29904;51.058;5.378;2023-12-20T12:36:22;8.00;99.90
44229;DHT22;29904;51.058;5.378;2023-12-20T12:38:47;7.90;99.90
44229;DHT22;29904;51.058;5.378;2023-12-20T12:41:14;7.90;99.90
44229;DHT22;29904;51.058;5.378;2023-12-20T12:43:41;8.00;99.90
44229;DHT22;29904;51.058;5.378;2023-12-20T12:46:07;8.00;99.90
44229;DHT22;29904;51.058;5.378;2023-12-20T12:48:32;8.00;99.90
44229;DHT22;29904;51.058;5.378;2023-12-20T12:51:01;8.00;99.90
44229;DHT22;29904;51.058;5.378;2023-12-20T12:53:26;8.00;99.90
44229;DHT22;29904;51.058;5.378;2023-12-20T12:55:53;8.00;99.90
44229;DHT22;29904;51.058;5.378;2023-12-20T12:58:20;8.00;99.90
44229;DHT22;29904;51.058;5.378;2023-12-20T13:00:46;8.10;99.90
44229;DHT22;29904;51.058;5.378;2023-12-20T13:03:12;8.10;99.90
44229;DHT22;29904;51.058;5.378;2023-12-20T13:05:39;8.10;99.90
44229;DHT22;29904;51.058;5.378;2023-12-20T13:08:05;8.20;99.90
44229;DHT22;29904;51.058;5.378;2023-12-20T13:10:32;8.20;99.90
44229;DHT22;29904;51.058;5.378;2023-12-20T13:12:59;8.20;99.90
44229;DHT22;29904;51.058;5.378;2023-12-20T13:15:25;8.30;99.90
44229;DHT22;29904;51.058;5.378;2023-12-20T13:17:51;8.30;99.90
44229;DHT22;29904;51.058;5.378;2023-12-20T13:20:17;8.30;99.90
44229;DHT22;29904;51.058;5.378;2023-12-20T13:22:42;8.30;99.90
44229;DHT22;29904;51.058;5.378;2023-12-20T13:25:08;8.30;99.90
44229;DHT22;29904;51.058;5.378;2023-12-20T13:27:36;8.40;99.90
44229;DHT22;29904;51.058;5.378;2023-12-20T13:30:02;8.40;99.90
44229;DHT22;29904;51.058;5.378;2023-12-20T13:32:28;8.40;99.90
44229;DHT22;29904;51.058;5.378;2023-12-20T13:34:54;8.40;99.90
44229;DHT22;29904;51.058;5.378;2023-12-20T13:37:20;8.40;99.90
44229;DHT22;29904;51.058;5.378;2023-12-20T13:39:46;8.40;99.90
44229;DHT22;29904;51.058;5.378;2023-12-20T13:42:13;8.40;99.90
44229;DHT22;29904;51.058;5.378;2023-12-20T13:44:41;8.40;99.90
44229;DHT22;29904;51.058;5.378;2023-12-20T13:47:07;8.40;99.90
44229;DHT22;29904;51.058;5.378;2023-12-20T13:49:33;8.30;99.90
44229;DHT22;29904;51.058;5.378;2023-12-20T13:51:59;8.30;99.90
44229;DHT22;29904;51.058;5.378;2023-12-20T13:54:25;8.40;99.90
44229;DHT22;29904;51.058;5.378;2023-12-20T13:56:50;8.40;99.90
44229;DHT22;29904;51.058;5.378;2023-12-20T13:59:16;8.40;99.90
44229;DHT22;29904;51.058;5.378;2023-12-20T14:01:42;8.40;99.90
44229;DHT22;29904;51.058;5.378;2023-12-20T14:04:07;8.40;99.90
44229;DHT22;29904;51.058;5.378;2023-12-20T14:06:33;8.40;99.90
44229;DHT22;29904;51.058;5.378;2023-12-20T14:08:59;8.40;99.90
44229;DHT22;29904;51.058;5.378;2023-12-20T14:11:28;8.40;99.90
44229;DHT22;29904;51.058;5.378;2023-12-20T14:13:56;8.40;99.90
44229;DHT22;29904;51.058;5.378;2023-12-20T14:16:24;8.40;99.90
44229;DHT22;29904;51.058;5.378;2023-12-20T14:18:49;8.40;99.90
44229;DHT22;29904;51.058;5.378;2023-12-20T14:21:19;8.40;99.90
44229;DHT22;29904;51.058;5.378;2023-12-20T14:23:45;8.40;99.90
44229;DHT22;29904;51.058;5.378;2023-12-20T14:26:11;8.50;99.90
44229;DHT22;29904;51.058;5.378;2023-12-20T14:28:42;8.50;99.90
44229;DHT22;29904;51.058;5.378;2023-12-20T14:31:07;8.40;99.90
44229;DHT22;29904;51.058;5.378;2023-12-20T14:33:36;8.40;99.90
44229;DHT22;29904;51.058;5.378;2023-12-20T14:36:04;8.50;99.90
44229;DHT22;29904;51.058;5.378;2023-12-20T14:38:33;8.50;99.90
44229;DHT22;29904;51.058;5.378;2023-12-20T14:40:59;8.50;99.90
44229;DHT22;29904;51.058;5.378;2023-12-20T14:43:26;8.50;99.90
44229;DHT22;29904;51.058;5.378;2023-12-20T14:45:52;8.50;99.90
44229;DHT22;29904;51.058;5.378;2023-12-20T14:48:18;8.50;99.90
44229;DHT22;29904;51.058;5.378;2023-12-20T14:50:45;8.50;99.90
44229;DHT22;29904;51.058;5.378;2023-12-20T14:53:14;8.50;99.90
44229;DHT22;29904;51.058;5.378;2023-12-20T14:55:44;8.50;99.90
44229;DHT22;29904;51.058;5.378;2023-12-20T14:58:12;8.50;99.90
44229;DHT22;29904;51.058;5.378;2023-12-20T15:00:37;8.50;99.90
44229;DHT22;29904;51.058;5.378;2023-12-20T15:03:03;8.50;99.90
44229;DHT22;29904;51.058;5.378;2023-12-20T15:05:32;8.50;99.90
44229;DHT22;29904;51.058;5.378;2023-12-20T15:07:57;8.50;99.90
44229;DHT22;29904;51.058;5.378;2023-12-20T15:10:23;8.50;99.90
44229;DHT22;29904;51.058;5.378;2023-12-20T15:12:49;8.50;99.90
44229;DHT22;29904;51.058;5.378;2023-12-20T15:15:15;8.50;99.90
44229;DHT22;29904;51.058;5.378;2023-12-20T15:17:41;8.50;99.90
44229;DHT22;29904;51.058;5.378;2023-12-20T15:20:08;8.50;99.90
44229;DHT22;29904;51.058;5.378;2023-12-20T15:22:36;8.50;99.90
44229;DHT22;29904;51.058;5.378;2023-12-20T15:25:03;8.50;99.90
44229;DHT22;29904;51.058;5.378;2023-12-20T15:27:31;8.50;99.90
44229;DHT22;29904;51.058;5.378;2023-12-20T15:29:58;8.50;99.90
44229;DHT22;29904;51.058;5.378;2023-12-20T15:32:24;8.50;99.90
44229;DHT22;29904;51.058;5.378;2023-12-20T15:34:50;8.50;99.90
44229;DHT22;29904;51.058;5.378;2023-12-20T15:37:17;8.60;99.90
44229;DHT22;29904;51.058;5.378;2023-12-20T15:39:43;8.60;99.90
44229;DHT22;29904;51.058;5.378;2023-12-20T15:42:11;8.60;99.90
44229;DHT22;29904;51.058;5.378;2023-12-20T15:44:36;8.60;99.90
44229;DHT22;29904;51.058;5.378;2023-12-20T15:47:02;8.60;99.90
44229;DHT22;29904;51.058;5.378;2023-12-20T15:49:30;8.60;99.90
44229;DHT22;29904;51.058;5.378;2023-12-20T15:51:56;8.60;99.90